sensor_id;sensor_type;location;lat;lon;timestamp;pressure;altitude;pressure_sealevel;temperature;humidity
3250;BME280;1637;42.020;23.992;2023-06-26T00:00:07;92642.59;;;17.06;100.00
3250;BME280;1637;42.020;23.992;2023-06-26T00:02:34;92641.09;;;17.05;100.00
3250;BME280;1637;42.020;23.992;2023-06-26T00:05:01;92645.63;;;17.08;100.00
3250;BME280;1637;42.020;23.992;2023-06-26T00:07:28;92644.84;;;17.08;100.00
3250;BME280;1637;42.020;23.992;2023-06-26T00:09:56;92652.91;;;17.21;100.00
3250;BME280;1637;42.020;23.992;2023-06-26T00:12:24;92649.94;;;17.37;100.00
3250;BME280;1637;42.020;23.992;2023-06-26T00:14:52;92615.75;;;17.21;100.00
3250;BME280;1637;42.020;23.992;2023-06-26T00:17:19;92651.00;;;17.39;100.00
3250;BME280;1637;42.020;23.992;2023-06-26T00:19:46;92647.94;;;17.28;100.00
3250;BME280;1637;42.020;23.992;2023-06-26T00:22:13;92645.09;;;17.23;100.00
3250;BME280;1637;42.020;23.992;2023-06-26T00:24:40;92645.47;;;17.03;100.00
3250;BME280;1637;42.020;23.992;2023-06-26T00:27:06;92644.47;;;17.28;100.00
3250;BME280;1637;42.020;23.992;2023-06-26T00:29:33;92641.00;;;17.18;100.00
3250;BME280;1637;42.020;23.992;2023-06-26T00:32:02;92640.56;;;17.20;100.00
3250;BME280;1637;42.020;23.992;2023-06-26T00:34:28;92639.50;;;17.26;100.00
3250;BME280;1637;42.020;23.992;2023-06-26T00:36:55;92638.75;;;17.26;100.00
3250;BME280;1637;42.020;23.992;2023-06-26T00:39:22;92642.03;;;17.11;100.00
3250;BME280;1637;42.020;23.992;2023-06-26T00:41:51;92636.34;;;17.18;100.00
3250;BME280;1637;42.020;23.992;2023-06-26T00:44:19;92633.00;;;17.14;100.00
3250;BME280;1637;42.020;23.992;2023-06-26T00:46:46;92628.53;;;17.21;100.00
3250;BME280;1637;42.020;23.992;2023-06-26T00:49:14;92632.53;;;17.07;100.00
3250;BME280;1637;42.020;23.992;2023-06-26T00:51:41;92620.41;;;16.80;100.00
3250;BME280;1637;42.020;23.992;2023-06-26T00:54:08;92613.69;;;16.63;100.00
3250;BME280;1637;42.020;23.992;2023-06-26T00:56:35;92611.69;;;16.55;100.00
3250;BME280;1637;42.020;23.992;2023-06-26T00:59:02;92614.13;;;16.62;100.00
3250;BME280;1637;42.020;23.992;2023-06-26T01:01:28;92613.56;;;16.67;100.00
3250;BME280;1637;42.020;23.992;2023-06-26T01:03:56;92611.34;;;16.74;100.00
3250;BME280;1637;42.020;23.992;2023-06-26T01:06:25;92613.31;;;16.74;100.00
3250;BME280;1637;42.020;23.992;2023-06-26T01:08:55;92606.34;;;16.64;100.00
3250;BME280;1637;42.020;23.992;2023-06-26T01:11:22;92606.66;;;16.66;100.00
3250;BME280;1637;42.020;23.992;2023-06-26T01:13:50;92610.19;;;16.84;100.00
3250;BME280;1637;42.020;23.992;2023-06-26T01:16:17;92604.44;;;16.73;100.00
3250;BME280;1637;42.020;23.992;2023-06-26T01:18:45;92604.25;;;16.68;100.00
3250;BME280;1637;42.020;23.992;2023-06-26T01:21:14;92604.00;;;16.75;100.00
3250;BME280;1637;42.020;23.992;2023-06-26T01:23:49;92600.16;;;16.63;100.00
3250;BME280;1637;42.020;23.992;2023-06-26T01:26:26;92605.31;;;16.70;100.00
3250;BME280;1637;42.020;23.992;2023-06-26T01:28:56;92599.78;;;16.52;100.00
3250;BME280;1637;42.020;23.992;2023-06-26T01:31:24;92600.09;;;16.54;100.00
3250;BME280;1637;42.020;23.992;2023-06-26T01:33:51;92596.78;;;16.50;100.00
3250;BME280;1637;42.020;23.992;2023-06-26T01:36:18;92599.59;;;16.46;100.00
3250;BME280;1637;42.020;23.992;2023-06-26T01:38:45;92595.25;;;16.71;100.00
3250;BME280;1637;42.020;23.992;2023-06-26T01:41:12;92599.69;;;16.87;100.00
3250;BME280;1637;42.020;23.992;2023-06-26T01:43:53;92591.44;;;16.90;100.00
3250;BME280;1637;42.020;23.992;2023-06-26T01:46:27;92604.25;;;16.99;100.00
3250;BME280;1637;42.020;23.992;2023-06-26T01:49:01;92590.97;;;16.82;100.00
3250;BME280;1637;42.020;23.992;2023-06-26T01:51:31;92579.72;;;16.62;100.00
3250;BME280;1637;42.020;23.992;2023-06-26T01:54:00;92588.53;;;16.54;100.00
3250;BME280;1637;42.020;23.992;2023-06-26T01:56:28;92587.28;;;16.45;100.00
3250;BME280;1637;42.020;23.992;2023-06-26T01:58:57;92587.41;;;16.64;100.00
3250;BME280;1637;42.020;23.992;2023-06-26T02:01:25;92596.50;;;16.79;100.00
3250;BME280;1637;42.020;23.992;2023-06-26T02:03:52;92606.47;;;16.91;100.00
3250;BME280;1637;42.020;23.992;2023-06-26T02:06:19;92591.44;;;16.90;100.00
3250;BME280;1637;42.020;23.992;2023-06-26T02:08:45;92591.75;;;16.92;100.00
3250;BME280;1637;42.020;23.992;2023-06-26T02:11:12;92593.88;;;17.06;100.00
3250;BME280;1637;42.020;23.992;2023-06-26T02:13:39;92588.84;;;16.87;100.00
3250;BME280;1637;42.020;23.992;2023-06-26T02:16:07;92587.84;;;16.93;100.00
3250;BME280;1637;42.020;23.992;2023-06-26T02:18:34;92595.69;;;17.00;100.00
3250;BME280;1637;42.020;23.992;2023-06-26T02:21:03;92603.13;;;16.78;100.00
3250;BME280;1637;42.020;23.992;2023-06-26T02:23:31;92584.69;;;16.64;100.00
3250;BME280;1637;42.020;23.992;2023-06-26T02:25:57;92587.19;;;16.80;100.00
3250;BME280;1637;42.020;23.992;2023-06-26T02:28:24;92583.13;;;16.75;100.00
3250;BME280;1637;42.020;23.992;2023-06-26T02:30:51;92578.66;;;16.81;100.00
3250;BME280;1637;42.020;23.992;2023-06-26T02:33:19;92575.41;;;16.65;100.00
3250;BME280;1637;42.020;23.992;2023-06-26T02:35:46;92574.78;;;16.61;100.00
3250;BME280;1637;42.020;23.992;2023-06-26T02:38:13;92580.47;;;16.63;100.00
3250;BME280;1637;42.020;23.992;2023-06-26T02:40:40;92571.19;;;16.64;100.00
3250;BME280;1637;42.020;23.992;2023-06-26T02:43:06;92576.53;;;16.55;100.00
3250;BME280;1637;42.020;23.992;2023-06-26T02:45:33;92579.03;;;16.71;100.00
3250;BME280;1637;42.020;23.992;2023-06-26T02:48:00;92583.63;;;16.92;100.00
3250;BME280;1637;42.020;23.992;2023-06-26T02:50:28;92489.25;;;16.14;100.00
3250;BME280;1637;42.020;23.992;2023-06-26T02:52:55;92568.09;;;16.74;100.00
3250;BME280;1637;42.020;23.992;2023-06-26T02:55:22;92581.56;;;16.65;100.00
3250;BME280;1637;42.020;23.992;2023-06-26T02:57:48;92578.03;;;16.87;100.00
3250;BME280;1637;42.020;23.992;2023-06-26T03:00:16;92572.38;;;16.94;100.00
3250;BME280;1637;42.020;23.992;2023-06-26T03:02:42;92568.09;;;16.74;100.00
3250;BME280;1637;42.020;23.992;2023-06-26T03:05:09;92572.66;;;16.96;100.00
3250;BME280;1637;42.020;23.992;2023-06-26T03:07:39;92576.03;;;16.69;100.00
3250;BME280;1637;42.020;23.992;2023-06-26T03:10:07;92578.97;;;16.62;100.00
3250;BME280;1637;42.020;23.992;2023-06-26T03:12:34;92585.28;;;16.59;100.00
3250;BME280;1637;42.020;23.992;2023-06-26T03:15:01;92578.66;;;16.60;100.00
3250;BME280;1637;42.020;23.992;2023-06-26T03:17:28;92580.97;;;17.01;100.00
3250;BME280;1637;42.020;23.992;2023-06-26T03:19:55;92576.16;;;17.05;100.00
3250;BME280;1637;42.020;23.992;2023-06-26T03:22:21;92583.69;;;17.10;100.00
3250;BME280;1637;42.020;23.992;2023-06-26T03:24:50;92590.28;;;17.00;100.00
3250;BME280;1637;42.020;23.992;2023-06-26T03:27:16;92599.66;;;17.17;100.00
3250;BME280;1637;42.020;23.992;2023-06-26T03:29:43;92594.81;;;17.03;100.00
3250;BME280;1637;42.020;23.992;2023-06-26T03:32:10;92585.69;;;16.79;100.00
3250;BME280;1637;42.020;23.992;2023-06-26T03:34:37;92581.44;;;16.69;100.00
3250;BME280;1637;42.020;23.992;2023-06-26T03:37:04;92593.25;;;16.93;100.00
3250;BME280;1637;42.020;23.992;2023-06-26T03:39:31;92595.00;;;17.18;100.00
3250;BME280;1637;42.020;23.992;2023-06-26T03:41:59;92596.41;;;17.41;100.00
3250;BME280;1637;42.020;23.992;2023-06-26T03:44:26;92595.56;;;17.99;100.00
3250;BME280;1637;42.020;23.992;2023-06-26T03:46:53;92593.91;;;18.19;100.00
3250;BME280;1637;42.020;23.992;2023-06-26T03:49:20;92595.78;;;18.74;100.00
3250;BME280;1637;42.020;23.992;2023-06-26T03:51:47;92603.34;;;18.70;100.00
3250;BME280;1637;42.020;23.992;2023-06-26T03:54:14;92587.25;;;18.39;100.00
3250;BME280;1637;42.020;23.992;2023-06-26T03:56:40;92593.81;;;18.74;100.00
3250;BME280;1637;42.020;23.992;2023-06-26T03:59:09;92608.13;;;19.17;100.00
3250;BME280;1637;42.020;23.992;2023-06-26T04:01:36;92590.09;;;19.05;100.00
3250;BME280;1637;42.020;23.992;2023-06-26T04:04:03;92602.41;;;18.82;100.00
3250;BME280;1637;42.020;23.992;2023-06-26T04:06:30;92595.00;;;18.82;100.00
3250;BME280;1637;42.020;23.992;2023-06-26T04:08:58;92597.50;;;19.61;100.00
3250;BME280;1637;42.020;23.992;2023-06-26T04:11:25;92595.31;;;20.51;100.00
3250;BME280;1637;42.020;23.992;2023-06-26T04:13:52;92599.16;;;20.59;94.26
3250;BME280;1637;42.020;23.992;2023-06-26T04:16:21;92591.19;;;20.56;97.33
3250;BME280;1637;42.020;23.992;2023-06-26T04:18:50;92604.03;;;21.00;93.74
3250;BME280;1637;42.020;23.992;2023-06-26T04:21:17;92606.31;;;21.51;88.75
3250;BME280;1637;42.020;23.992;2023-06-26T04:23:45;92599.22;;;21.09;89.01
3250;BME280;1637;42.020;23.992;2023-06-26T04:26:12;92596.09;;;21.66;89.26
3250;BME280;1637;42.020;23.992;2023-06-26T04:28:40;92583.28;;;21.92;84.93
3250;BME280;1637;42.020;23.992;2023-06-26T04:31:08;92597.53;;;22.94;81.47
3250;BME280;1637;42.020;23.992;2023-06-26T04:33:37;92607.06;;;23.10;81.52
3250;BME280;1637;42.020;23.992;2023-06-26T04:36:04;92607.34;;;23.12;77.78
3250;BME280;1637;42.020;23.992;2023-06-26T04:38:31;92607.66;;;23.20;77.58
3250;BME280;1637;42.020;23.992;2023-06-26T04:40:58;92603.78;;;22.75;78.61
3250;BME280;1637;42.020;23.992;2023-06-26T04:43:25;92608.00;;;23.70;76.68
3250;BME280;1637;42.020;23.992;2023-06-26T04:45:52;92616.38;;;24.63;71.85
3250;BME280;1637;42.020;23.992;2023-06-26T04:48:19;92628.09;;;24.69;71.70
3250;BME280;1637;42.020;23.992;2023-06-26T04:50:47;92610.06;;;24.29;72.33
3250;BME280;1637;42.020;23.992;2023-06-26T04:53:19;92607.34;;;23.44;75.67
3250;BME280;1637;42.020;23.992;2023-06-26T04:55:46;92609.44;;;23.60;76.72
3250;BME280;1637;42.020;23.992;2023-06-26T04:58:13;92605.78;;;23.69;76.45
3250;BME280;1637;42.020;23.992;2023-06-26T05:00:40;92620.59;;;24.75;70.85
3250;BME280;1637;42.020;23.992;2023-06-26T05:03:08;92625.16;;;24.95;69.73
3250;BME280;1637;42.020;23.992;2023-06-26T05:05:35;92624.88;;;24.93;71.81
3250;BME280;1637;42.020;23.992;2023-06-26T05:08:15;92616.69;;;24.17;72.33
3250;BME280;1637;42.020;23.992;2023-06-26T05:10:42;92616.69;;;24.98;72.38
3250;BME280;1637;42.020;23.992;2023-06-26T05:13:09;92624.59;;;24.69;72.45
3250;BME280;1637;42.020;23.992;2023-06-26T05:15:36;92621.94;;;25.30;70.64
3250;BME280;1637;42.020;23.992;2023-06-26T05:18:03;92635.13;;;24.98;70.22
3250;BME280;1637;42.020;23.992;2023-06-26T05:20:30;92587.75;;;25.70;67.91
3250;BME280;1637;42.020;23.992;2023-06-26T05:22:57;92631.06;;;25.99;66.79
3250;BME280;1637;42.020;23.992;2023-06-26T05:25:26;92634.53;;;26.11;66.71
3250;BME280;1637;42.020;23.992;2023-06-26T05:27:55;92631.88;;;25.39;69.44
3250;BME280;1637;42.020;23.992;2023-06-26T05:30:22;92637.34;;;25.83;68.10
3250;BME280;1637;42.020;23.992;2023-06-26T05:32:51;92641.66;;;26.48;66.78
3250;BME280;1637;42.020;23.992;2023-06-26T05:35:20;92647.81;;;26.65;64.49
3250;BME280;1637;42.020;23.992;2023-06-26T05:37:48;92655.50;;;27.60;61.88
3250;BME280;1637;42.020;23.992;2023-06-26T05:40:16;92641.81;;;27.13;62.73
3250;BME280;1637;42.020;23.992;2023-06-26T05:42:45;92638.31;;;24.15;73.73
3250;BME280;1637;42.020;23.992;2023-06-26T05:45:14;92630.28;;;24.59;72.30
3250;BME280;1637;42.020;23.992;2023-06-26T05:47:41;92633.63;;;24.21;73.55
3250;BME280;1637;42.020;23.992;2023-06-26T05:50:09;92632.91;;;25.36;69.05
3250;BME280;1637;42.020;23.992;2023-06-26T05:52:36;92627.00;;;26.28;66.78
3250;BME280;1637;42.020;23.992;2023-06-26T05:55:05;92634.91;;;25.29;67.38
3250;BME280;1637;42.020;23.992;2023-06-26T05:57:32;92624.69;;;25.36;67.90
3250;BME280;1637;42.020;23.992;2023-06-26T06:00:03;92629.69;;;23.79;74.29
3250;BME280;1637;42.020;23.992;2023-06-26T06:02:36;92626.44;;;25.27;71.18
3250;BME280;1637;42.020;23.992;2023-06-26T06:05:03;92624.03;;;26.79;65.82
3250;BME280;1637;42.020;23.992;2023-06-26T06:07:31;92632.16;;;27.36;62.50
3250;BME280;1637;42.020;23.992;2023-06-26T06:09:58;92637.09;;;27.08;62.55
3250;BME280;1637;42.020;23.992;2023-06-26T06:12:25;92631.41;;;27.66;62.51
3250;BME280;1637;42.020;23.992;2023-06-26T06:14:52;92626.44;;;27.29;61.98
3250;BME280;1637;42.020;23.992;2023-06-26T06:17:20;92626.94;;;26.92;62.51
3250;BME280;1637;42.020;23.992;2023-06-26T06:19:47;92630.09;;;26.60;62.87
3250;BME280;1637;42.020;23.992;2023-06-26T06:22:14;92633.06;;;27.45;62.16
3250;BME280;1637;42.020;23.992;2023-06-26T06:24:42;92627.00;;;28.06;60.29
3250;BME280;1637;42.020;23.992;2023-06-26T06:27:09;92627.53;;;26.79;63.94
3250;BME280;1637;42.020;23.992;2023-06-26T06:29:36;92618.94;;;25.73;65.44
3250;BME280;1637;42.020;23.992;2023-06-26T06:32:03;92620.59;;;24.75;69.79
3250;BME280;1637;42.020;23.992;2023-06-26T06:34:31;92614.91;;;24.03;72.27
3250;BME280;1637;42.020;23.992;2023-06-26T06:36:58;92607.94;;;23.59;73.88
3250;BME280;1637;42.020;23.992;2023-06-26T06:39:25;92612.59;;;23.47;74.63
3250;BME280;1637;42.020;23.992;2023-06-26T06:41:52;92617.38;;;23.58;76.53
3250;BME280;1637;42.020;23.992;2023-06-26T06:44:19;92611.41;;;23.54;72.06
3250;BME280;1637;42.020;23.992;2023-06-26T06:46:46;92609.91;;;23.53;72.99
3250;BME280;1637;42.020;23.992;2023-06-26T06:49:12;92614.00;;;23.37;72.80
3250;BME280;1637;42.020;23.992;2023-06-26T06:51:40;92615.28;;;23.42;71.94
3250;BME280;1637;42.020;23.992;2023-06-26T06:54:07;92612.94;;;22.98;72.41
3250;BME280;1637;42.020;23.992;2023-06-26T06:56:34;92613.38;;;22.90;74.39
3250;BME280;1637;42.020;23.992;2023-06-26T06:59:01;92613.69;;;24.15;68.81
3250;BME280;1637;42.020;23.992;2023-06-26T07:01:28;92615.56;;;24.46;69.43
3250;BME280;1637;42.020;23.992;2023-06-26T07:03:55;92624.03;;;24.42;68.37
3250;BME280;1637;42.020;23.992;2023-06-26T07:06:23;92615.38;;;24.01;69.68
3250;BME280;1637;42.020;23.992;2023-06-26T07:08:51;92622.53;;;23.87;68.84
3250;BME280;1637;42.020;23.992;2023-06-26T07:11:18;92624.28;;;24.44;65.98
3250;BME280;1637;42.020;23.992;2023-06-26T07:13:44;92633.75;;;24.54;66.83
3250;BME280;1637;42.020;23.992;2023-06-26T07:16:11;92632.50;;;23.53;68.88
3250;BME280;1637;42.020;23.992;2023-06-26T07:18:40;92620.91;;;23.33;70.61
3250;BME280;1637;42.020;23.992;2023-06-26T07:21:07;92627.78;;;23.96;70.49
3250;BME280;1637;42.020;23.992;2023-06-26T07:23:34;92625.34;;;24.69;67.69
3250;BME280;1637;42.020;23.992;2023-06-26T07:26:02;92629.16;;;25.72;65.66
3250;BME280;1637;42.020;23.992;2023-06-26T07:28:29;92636.84;;;25.96;61.86
3250;BME280;1637;42.020;23.992;2023-06-26T07:30:56;92630.59;;;25.95;61.93
3250;BME280;1637;42.020;23.992;2023-06-26T07:33:23;92621.44;;;25.54;63.24
3250;BME280;1637;42.020;23.992;2023-06-26T07:35:49;92639.88;;;25.09;62.95
3250;BME280;1637;42.020;23.992;2023-06-26T07:38:16;92628.16;;;25.08;64.73
3250;BME280;1637;42.020;23.992;2023-06-26T07:40:43;92623.28;;;24.53;62.82
3250;BME280;1637;42.020;23.992;2023-06-26T07:43:11;92623.59;;;24.01;65.82
3250;BME280;1637;42.020;23.992;2023-06-26T07:45:38;92624.53;;;23.87;67.05
3250;BME280;1637;42.020;23.992;2023-06-26T07:48:06;92628.00;;;23.93;66.42
3250;BME280;1637;42.020;23.992;2023-06-26T07:50:33;92629.81;;;23.59;65.77
3250;BME280;1637;42.020;23.992;2023-06-26T07:52:59;92625.16;;;23.71;67.56
3250;BME280;1637;42.020;23.992;2023-06-26T07:55:26;92637.47;;;24.40;66.94
3250;BME280;1637;42.020;23.992;2023-06-26T07:57:53;92643.88;;;25.08;63.94
3250;BME280;1637;42.020;23.992;2023-06-26T08:00:22;92643.59;;;25.06;61.64
3250;BME280;1637;42.020;23.992;2023-06-26T08:02:48;92633.19;;;24.33;63.44
3250;BME280;1637;42.020;23.992;2023-06-26T08:05:15;92639.69;;;24.42;65.50
3250;BME280;1637;42.020;23.992;2023-06-26T08:07:42;92633.66;;;25.53;62.77
3250;BME280;1637;42.020;23.992;2023-06-26T08:10:10;92644.34;;;25.17;62.91
3250;BME280;1637;42.020;23.992;2023-06-26T08:12:36;92638.78;;;24.67;62.44
3250;BME280;1637;42.020;23.992;2023-06-26T08:15:06;92638.59;;;24.22;61.86
3250;BME280;1637;42.020;23.992;2023-06-26T08:17:35;92626.28;;;23.95;63.20
3250;BME280;1637;42.020;23.992;2023-06-26T08:20:03;92634.31;;;23.30;64.79
3250;BME280;1637;42.020;23.992;2023-06-26T08:22:30;92634.69;;;24.35;62.18
3250;BME280;1637;42.020;23.992;2023-06-26T08:24:57;92631.03;;;24.54;61.83
3250;BME280;1637;42.020;23.992;2023-06-26T08:27:24;92635.66;;;25.36;59.83
3250;BME280;1637;42.020;23.992;2023-06-26T08:29:51;92637.19;;;24.38;60.98
3250;BME280;1637;42.020;23.992;2023-06-26T08:32:18;92633.28;;;24.02;61.66
3250;BME280;1637;42.020;23.992;2023-06-26T08:34:46;92639.31;;;24.17;62.39
3250;BME280;1637;42.020;23.992;2023-06-26T08:37:13;92624.88;;;24.11;60.69
3250;BME280;1637;42.020;23.992;2023-06-26T08:39:40;92633.59;;;24.10;62.44
3250;BME280;1637;42.020;23.992;2023-06-26T08:42:07;92633.97;;;24.40;61.39
3250;BME280;1637;42.020;23.992;2023-06-26T08:44:34;92633.75;;;24.54;61.05
3250;BME280;1637;42.020;23.992;2023-06-26T08:47:01;92635.84;;;24.17;60.79
3250;BME280;1637;42.020;23.992;2023-06-26T08:49:33;92640.31;;;24.90;59.67
3250;BME280;1637;42.020;23.992;2023-06-26T08:52:10;92640.38;;;25.74;56.78
3250;BME280;1637;42.020;23.992;2023-06-26T08:54:43;92607.97;;;25.00;58.37
3250;BME280;1637;42.020;23.992;2023-06-26T08:57:14;92609.81;;;24.38;59.72
3250;BME280;1637;42.020;23.992;2023-06-26T08:59:44;92633.41;;;24.24;61.20
3250;BME280;1637;42.020;23.992;2023-06-26T09:02:12;92620.88;;;24.12;60.00
3250;BME280;1637;42.020;23.992;2023-06-26T09:04:40;92638.16;;;24.24;59.35
3250;BME280;1637;42.020;23.992;2023-06-26T09:07:08;92629.03;;;24.55;59.09
3250;BME280;1637;42.020;23.992;2023-06-26T09:09:35;92631.84;;;24.83;59.59
3250;BME280;1637;42.020;23.992;2023-06-26T09:12:02;92627.91;;;25.28;56.94
3250;BME280;1637;42.020;23.992;2023-06-26T09:14:29;92625.16;;;25.56;56.60
3250;BME280;1637;42.020;23.992;2023-06-26T09:16:56;92627.63;;;25.82;55.88
3250;BME280;1637;42.020;23.992;2023-06-26T09:19:23;92609.22;;;25.44;55.72
3250;BME280;1637;42.020;23.992;2023-06-26T09:21:50;92619.94;;;25.42;56.59
3250;BME280;1637;42.020;23.992;2023-06-26T09:24:19;92630.88;;;25.36;55.08
3250;BME280;1637;42.020;23.992;2023-06-26T09:26:46;92632.88;;;25.02;57.13
3250;BME280;1637;42.020;23.992;2023-06-26T09:29:13;92627.88;;;24.89;57.18
3250;BME280;1637;42.020;23.992;2023-06-26T09:31:40;92621.91;;;25.58;55.63
3250;BME280;1637;42.020;23.992;2023-06-26T09:34:09;92629.66;;;25.48;56.59
3250;BME280;1637;42.020;23.992;2023-06-26T09:36:36;92633.38;;;25.62;56.71
3250;BME280;1637;42.020;23.992;2023-06-26T09:39:04;92629.56;;;25.98;54.75
3250;BME280;1637;42.020;23.992;2023-06-26T09:41:35;92593.03;;;25.34;54.08
3250;BME280;1637;42.020;23.992;2023-06-26T09:44:04;92631.13;;;25.83;54.98
3250;BME280;1637;42.020;23.992;2023-06-26T09:46:31;92620.06;;;26.11;52.98
3250;BME280;1637;42.020;23.992;2023-06-26T09:48:59;92620.09;;;26.05;51.67
3250;BME280;1637;42.020;23.992;2023-06-26T09:51:29;92612.09;;;26.07;51.87
3250;BME280;1637;42.020;23.992;2023-06-26T09:53:56;92602.72;;;25.41;53.81
3250;BME280;1637;42.020;23.992;2023-06-26T09:56:23;92617.88;;;24.70;55.07
3250;BME280;1637;42.020;23.992;2023-06-26T09:58:52;92611.44;;;24.95;54.89
3250;BME280;1637;42.020;23.992;2023-06-26T10:01:20;92614.19;;;25.40;55.64
3250;BME280;1637;42.020;23.992;2023-06-26T10:03:46;92611.22;;;25.26;54.53
3250;BME280;1637;42.020;23.992;2023-06-26T10:06:15;92610.97;;;25.30;56.16
3250;BME280;1637;42.020;23.992;2023-06-26T10:08:45;92613.97;;;25.26;55.24
3250;BME280;1637;42.020;23.992;2023-06-26T10:11:16;92606.50;;;25.27;56.55
3250;BME280;1637;42.020;23.992;2023-06-26T10:13:45;92602.22;;;24.92;57.60
3250;BME280;1637;42.020;23.992;2023-06-26T10:16:21;92601.22;;;24.90;57.11
3250;BME280;1637;42.020;23.992;2023-06-26T10:18:51;92592.75;;;24.82;56.32
3250;BME280;1637;42.020;23.992;2023-06-26T10:21:20;92593.75;;;24.96;57.34
3250;BME280;1637;42.020;23.992;2023-06-26T10:23:47;92594.50;;;24.91;56.53
3250;BME280;1637;42.020;23.992;2023-06-26T10:26:14;92589.03;;;24.91;56.83
3250;BME280;1637;42.020;23.992;2023-06-26T10:28:44;92585.75;;;24.70;56.93
3250;BME280;1637;42.020;23.992;2023-06-26T10:31:15;92585.56;;;25.07;56.71
3250;BME280;1637;42.020;23.992;2023-06-26T10:33:42;92591.53;;;24.94;55.95
3250;BME280;1637;42.020;23.992;2023-06-26T10:36:16;92582.03;;;24.90;56.50
3250;BME280;1637;42.020;23.992;2023-06-26T10:38:51;92581.31;;;25.06;53.88
3250;BME280;1637;42.020;23.992;2023-06-26T10:41:22;92579.31;;;25.23;56.42
3250;BME280;1637;42.020;23.992;2023-06-26T10:43:50;92573.09;;;25.23;55.72
3250;BME280;1637;42.020;23.992;2023-06-26T10:46:23;92576.22;;;25.88;56.10
3250;BME280;1637;42.020;23.992;2023-06-26T10:48:56;92571.91;;;26.10;54.04
3250;BME280;1637;42.020;23.992;2023-06-26T10:51:24;92572.91;;;26.07;54.74
3250;BME280;1637;42.020;23.992;2023-06-26T10:53:54;92581.63;;;26.16;53.85
3250;BME280;1637;42.020;23.992;2023-06-26T10:56:20;92566.78;;;25.61;55.14
3250;BME280;1637;42.020;23.992;2023-06-26T10:58:47;92576.31;;;25.16;56.28
3250;BME280;1637;42.020;23.992;2023-06-26T11:01:22;92567.13;;;25.36;55.56
3250;BME280;1637;42.020;23.992;2023-06-26T11:04:01;92573.72;;;25.96;54.85
3250;BME280;1637;42.020;23.992;2023-06-26T11:06:31;92569.25;;;25.93;53.74
3250;BME280;1637;42.020;23.992;2023-06-26T11:09:01;92567.19;;;25.99;54.61
3250;BME280;1637;42.020;23.992;2023-06-26T11:11:56;92564.19;;;26.02;54.43
3250;BME280;1637;42.020;23.992;2023-06-26T11:14:27;92577.81;;;26.25;54.45
3250;BME280;1637;42.020;23.992;2023-06-26T11:16:57;92565.34;;;26.24;55.54
3250;BME280;1637;42.020;23.992;2023-06-26T11:19:25;92560.16;;;26.15;53.69
3250;BME280;1637;42.020;23.992;2023-06-26T11:22:02;92569.66;;;26.14;54.44
3250;BME280;1637;42.020;23.992;2023-06-26T11:24:29;92561.19;;;26.12;53.62
3250;BME280;1637;42.020;23.992;2023-06-26T11:27:00;92563.56;;;25.74;54.19
3250;BME280;1637;42.020;23.992;2023-06-26T11:29:29;92569.56;;;25.73;54.68
3250;BME280;1637;42.020;23.992;2023-06-26T11:32:01;92570.06;;;25.65;55.10
3250;BME280;1637;42.020;23.992;2023-06-26T11:34:31;92568.31;;;25.68;55.72
3250;BME280;1637;42.020;23.992;2023-06-26T11:36:58;92564.63;;;25.32;56.06
3250;BME280;1637;42.020;23.992;2023-06-26T11:39:27;92550.19;;;25.09;56.88
3250;BME280;1637;42.020;23.992;2023-06-26T11:41:53;92569.59;;;25.28;57.04
3250;BME280;1637;42.020;23.992;2023-06-26T11:44:21;92555.34;;;25.52;56.58
3250;BME280;1637;42.020;23.992;2023-06-26T11:46:51;92558.28;;;25.87;56.18
3250;BME280;1637;42.020;23.992;2023-06-26T11:49:22;92552.19;;;26.17;54.79
3250;BME280;1637;42.020;23.992;2023-06-26T11:51:51;92565.00;;;25.86;53.92
3250;BME280;1637;42.020;23.992;2023-06-26T11:54:29;92563.56;;;25.74;56.21
3250;BME280;1637;42.020;23.992;2023-06-26T11:56:58;92557.59;;;25.64;56.13
3250;BME280;1637;42.020;23.992;2023-06-26T11:59:33;92569.28;;;25.59;56.12
3250;BME280;1637;42.020;23.992;2023-06-26T12:02:04;92556.84;;;25.70;55.65
3250;BME280;1637;42.020;23.992;2023-06-26T12:04:33;92565.56;;;25.62;53.90
3250;BME280;1637;42.020;23.992;2023-06-26T12:07:01;92553.31;;;25.80;55.34
3250;BME280;1637;42.020;23.992;2023-06-26T12:09:32;92557.56;;;25.76;56.33
3250;BME280;1637;42.020;23.992;2023-06-26T12:12:00;92547.13;;;26.32;56.01
3250;BME280;1637;42.020;23.992;2023-06-26T12:14:27;92550.22;;;26.00;55.79
3250;BME280;1637;42.020;23.992;2023-06-26T12:16:55;92552.53;;;25.85;56.65
3250;BME280;1637;42.020;23.992;2023-06-26T12:19:24;92550.72;;;26.05;57.78
3250;BME280;1637;42.020;23.992;2023-06-26T12:21:54;92547.53;;;25.89;57.03
3250;BME280;1637;42.020;23.992;2023-06-26T12:24:22;92552.78;;;25.82;56.81
3250;BME280;1637;42.020;23.992;2023-06-26T12:26:51;92556.03;;;25.80;54.57
3250;BME280;1637;42.020;23.992;2023-06-26T12:29:21;92533.41;;;25.63;55.30
3250;BME280;1637;42.020;23.992;2023-06-26T12:31:52;92549.34;;;25.70;55.38
3250;BME280;1637;42.020;23.992;2023-06-26T12:34:19;92553.59;;;25.65;54.76
3250;BME280;1637;42.020;23.992;2023-06-26T12:36:47;92552.22;;;26.00;54.26
3250;BME280;1637;42.020;23.992;2023-06-26T12:39:17;92552.28;;;25.94;54.83
3250;BME280;1637;42.020;23.992;2023-06-26T12:41:48;92566.06;;;25.72;54.69
3250;BME280;1637;42.020;23.992;2023-06-26T12:44:19;92566.44;;;25.98;54.53
3250;BME280;1637;42.020;23.992;2023-06-26T12:46:48;92556.84;;;25.47;55.18
3250;BME280;1637;42.020;23.992;2023-06-26T12:49:16;92573.78;;;25.57;54.74
3250;BME280;1637;42.020;23.992;2023-06-26T12:51:44;92568.53;;;25.59;54.14
3250;BME280;1637;42.020;23.992;2023-06-26T12:54:12;92571.28;;;25.76;53.84
3250;BME280;1637;42.020;23.992;2023-06-26T12:56:40;92579.66;;;26.06;53.14
3250;BME280;1637;42.020;23.992;2023-06-26T12:59:07;92582.78;;;25.74;54.24
3250;BME280;1637;42.020;23.992;2023-06-26T13:01:34;92577.31;;;25.46;56.15
3250;BME280;1637;42.020;23.992;2023-06-26T13:04:02;92568.59;;;25.37;56.16
3250;BME280;1637;42.020;23.992;2023-06-26T13:06:29;92571.34;;;25.03;57.76
3250;BME280;1637;42.020;23.992;2023-06-26T13:08:57;92570.38;;;25.12;58.67
3250;BME280;1637;42.020;23.992;2023-06-26T13:11:24;92563.13;;;25.03;59.83